sensor_id;sensor_type;location;lat;lon;timestamp;temperature;humidity
31979;DHT22;18502;43.574;1.276;2022-07-23T00:01:59;21.20;99.90
31979;DHT22;18502;43.574;1.276;2022-07-23T00:04:25;21.20;99.90
31979;DHT22;18502;43.574;1.276;2022-07-23T00:06:51;21.10;99.90
31979;DHT22;18502;43.574;1.276;2022-07-23T00:09:16;21.10;99.90
31979;DHT22;18502;43.574;1.276;2022-07-23T00:11:42;21.10;99.90
31979;DHT22;18502;43.574;1.276;2022-07-23T00:14:08;21.10;99.90
31979;DHT22;18502;43.574;1.276;2022-07-23T00:16:33;21.20;99.90
31979;DHT22;18502;43.574;1.276;2022-07-23T00:18:59;21.20;99.90
31979;DHT22;18502;43.574;1.276;2022-07-23T00:21:26;21.30;99.90
31979;DHT22;18502;43.574;1.276;2022-07-23T00:23:52;21.40;99.90
31979;DHT22;18502;43.574;1.276;2022-07-23T00:26:18;21.40;99.90
31979;DHT22;18502;43.574;1.276;2022-07-23T00:28:43;21.10;99.90
31979;DHT22;18502;43.574;1.276;2022-07-23T00:31:09;20.80;99.90
31979;DHT22;18502;43.574;1.276;2022-07-23T00:33:35;20.70;99.90
31979;DHT22;18502;43.574;1.276;2022-07-23T00:36:01;20.50;99.90
31979;DHT22;18502;43.574;1.276;2022-07-23T00:38:27;20.40;99.90
31979;DHT22;18502;43.574;1.276;2022-07-23T00:40:53;20.20;99.90
31979;DHT22;18502;43.574;1.276;2022-07-23T00:43:20;20.10;99.90
31979;DHT22;18502;43.574;1.276;2022-07-23T00:45:47;20.00;99.90
31979;DHT22;18502;43.574;1.276;2022-07-23T00:48:12;20.00;99.90
31979;DHT22;18502;43.574;1.276;2022-07-23T00:50:38;19.90;99.90
31979;DHT22;18502;43.574;1.276;2022-07-23T00:53:05;19.90;99.90
31979;DHT22;18502;43.574;1.276;2022-07-23T00:55:31;19.80;99.90
31979;DHT22;18502;43.574;1.276;2022-07-23T00:57:57;19.70;99.90
31979;DHT22;18502;43.574;1.276;2022-07-23T01:00:23;19.70;99.90
31979;DHT22;18502;43.574;1.276;2022-07-23T01:02:49;19.70;99.90
31979;DHT22;18502;43.574;1.276;2022-07-23T01:05:16;19.70;99.90
31979;DHT22;18502;43.574;1.276;2022-07-23T01:07:43;19.70;99.90
31979;DHT22;18502;43.574;1.276;2022-07-23T01:10:09;19.70;99.90
31979;DHT22;18502;43.574;1.276;2022-07-23T01:12:54;19.50;99.90
31979;DHT22;18502;43.574;1.276;2022-07-23T01:15:20;19.50;99.90
31979;DHT22;18502;43.574;1.276;2022-07-23T01:17:45;19.30;99.90
31979;DHT22;18502;43.574;1.276;2022-07-23T01:20:11;19.30;99.90
31979;DHT22;18502;43.574;1.276;2022-07-23T01:22:37;19.30;99.90
31979;DHT22;18502;43.574;1.276;2022-07-23T01:25:03;19.30;99.90
31979;DHT22;18502;43.574;1.276;2022-07-23T01:27:28;19.40;99.90
31979;DHT22;18502;43.574;1.276;2022-07-23T01:29:55;19.20;99.90
31979;DHT22;18502;43.574;1.276;2022-07-23T01:32:22;19.50;99.90
31979;DHT22;18502;43.574;1.276;2022-07-23T01:34:47;19.60;99.90
31979;DHT22;18502;43.574;1.276;2022-07-23T01:37:13;19.70;99.90
31979;DHT22;18502;43.574;1.276;2022-07-23T01:39:39;19.70;99.90
31979;DHT22;18502;43.574;1.276;2022-07-23T01:42:05;19.80;99.90
31979;DHT22;18502;43.574;1.276;2022-07-23T01:44:31;19.80;99.90
31979;DHT22;18502;43.574;1.276;2022-07-23T01:46:56;19.80;99.90
31979;DHT22;18502;43.574;1.276;2022-07-23T01:49:22;19.80;99.90
31979;DHT22;18502;43.574;1.276;2022-07-23T01:51:48;19.70;99.90
31979;DHT22;18502;43.574;1.276;2022-07-23T01:54:31;19.70;99.90
31979;DHT22;18502;43.574;1.276;2022-07-23T01:56:57;19.50;99.90
31979;DHT22;18502;43.574;1.276;2022-07-23T01:59:23;19.50;99.90
31979;DHT22;18502;43.574;1.276;2022-07-23T02:01:49;19.50;99.90
31979;DHT22;18502;43.574;1.276;2022-07-23T02:04:23;19.60;99.90
31979;DHT22;18502;43.574;1.276;2022-07-23T02:06:49;19.80;99.90
31979;DHT22;18502;43.574;1.276;2022-07-23T02:09:15;19.70;99.90
31979;DHT22;18502;43.574;1.276;2022-07-23T02:11:41;19.70;99.90
31979;DHT22;18502;43.574;1.276;2022-07-23T02:14:07;19.80;99.90
31979;DHT22;18502;43.574;1.276;2022-07-23T02:16:33;19.80;99.90
31979;DHT22;18502;43.574;1.276;2022-07-23T02:18:59;19.90;99.90
31979;DHT22;18502;43.574;1.276;2022-07-23T02:21:24;19.80;99.90
31979;DHT22;18502;43.574;1.276;2022-07-23T02:23:50;19.80;99.90
31979;DHT22;18502;43.574;1.276;2022-07-23T02:26:16;19.80;99.90
31979;DHT22;18502;43.574;1.276;2022-07-23T02:28:42;19.70;99.90
31979;DHT22;18502;43.574;1.276;2022-07-23T02:31:07;19.70;99.90
31979;DHT22;18502;43.574;1.276;2022-07-23T02:33:33;19.70;99.90
31979;DHT22;18502;43.574;1.276;2022-07-23T02:35:59;19.70;99.90
31979;DHT22;18502;43.574;1.276;2022-07-23T02:38:25;19.80;99.90
31979;DHT22;18502;43.574;1.276;2022-07-23T02:40:51;19.60;99.90
31979;DHT22;18502;43.574;1.276;2022-07-23T02:43:17;19.70;99.90
31979;DHT22;18502;43.574;1.276;2022-07-23T02:45:43;19.60;99.90
31979;DHT22;18502;43.574;1.276;2022-07-23T02:48:08;19.70;99.90
31979;DHT22;18502;43.574;1.276;2022-07-23T02:50:34;19.60;99.90
31979;DHT22;18502;43.574;1.276;2022-07-23T02:53:00;19.60;99.90
31979;DHT22;18502;43.574;1.276;2022-07-23T02:55:26;19.50;99.90
31979;DHT22;18502;43.574;1.276;2022-07-23T02:57:52;19.50;99.90
31979;DHT22;18502;43.574;1.276;2022-07-23T03:00:17;19.60;99.90
31979;DHT22;18502;43.574;1.276;2022-07-23T03:02:43;19.40;99.90
31979;DHT22;18502;43.574;1.276;2022-07-23T03:05:09;19.40;99.90
31979;DHT22;18502;43.574;1.276;2022-07-23T03:07:35;19.30;99.90
31979;DHT22;18502;43.574;1.276;2022-07-23T03:10:01;19.30;99.90
31979;DHT22;18502;43.574;1.276;2022-07-23T03:12:27;19.40;99.90
31979;DHT22;18502;43.574;1.276;2022-07-23T03:14:52;19.30;99.90
31979;DHT22;18502;43.574;1.276;2022-07-23T03:17:18;19.30;99.90
31979;DHT22;18502;43.574;1.276;2022-07-23T03:19:43;19.40;99.90
31979;DHT22;18502;43.574;1.276;2022-07-23T03:22:09;19.50;99.90
31979;DHT22;18502;43.574;1.276;2022-07-23T03:24:35;19.50;99.90
31979;DHT22;18502;43.574;1.276;2022-07-23T03:27:19;19.50;99.90
31979;DHT22;18502;43.574;1.276;2022-07-23T03:29:45;19.40;99.90
31979;DHT22;18502;43.574;1.276;2022-07-23T03:32:11;19.30;99.90
31979;DHT22;18502;43.574;1.276;2022-07-23T03:34:37;19.40;99.90
31979;DHT22;18502;43.574;1.276;2022-07-23T03:37:02;19.30;99.90
31979;DHT22;18502;43.574;1.276;2022-07-23T03:39:28;19.40;99.90
31979;DHT22;18502;43.574;1.276;2022-07-23T03:41:54;19.30;99.90
31979;DHT22;18502;43.574;1.276;2022-07-23T03:44:19;19.40;99.90
31979;DHT22;18502;43.574;1.276;2022-07-23T03:46:45;19.30;99.90
31979;DHT22;18502;43.574;1.276;2022-07-23T03:49:11;19.30;99.90
31979;DHT22;18502;43.574;1.276;2022-07-23T03:51:36;19.30;99.90
31979;DHT22;18502;43.574;1.276;2022-07-23T03:54:02;19.30;99.90
31979;DHT22;18502;43.574;1.276;2022-07-23T03:56:28;19.20;99.90
31979;DHT22;18502;43.574;1.276;2022-07-23T03:58:54;19.10;99.90
31979;DHT22;18502;43.574;1.276;2022-07-23T04:01:19;19.20;99.90
31979;DHT22;18502;43.574;1.276;2022-07-23T04:03:45;19.20;99.90
31979;DHT22;18502;43.574;1.276;2022-07-23T04:06:12;19.20;99.90
31979;DHT22;18502;43.574;1.276;2022-07-23T04:08:37;19.20;99.90
31979;DHT22;18502;43.574;1.276;2022-07-23T04:11:03;19.20;99.90
31979;DHT22;18502;43.574;1.276;2022-07-23T04:13:29;19.10;99.90
31979;DHT22;18502;43.574;1.276;2022-07-23T04:15:55;19.20;99.90
31979;DHT22;18502;43.574;1.276;2022-07-23T04:18:20;19.00;99.90
31979;DHT22;18502;43.574;1.276;2022-07-23T04:20:50;19.00;99.90
31979;DHT22;18502;43.574;1.276;2022-07-23T04:23:17;19.00;99.90
31979;DHT22;18502;43.574;1.276;2022-07-23T04:25:43;19.10;99.90
31979;DHT22;18502;43.574;1.276;2022-07-23T04:28:09;19.10;99.90
31979;DHT22;18502;43.574;1.276;2022-07-23T04:30:35;19.10;99.90
31979;DHT22;18502;43.574;1.276;2022-07-23T04:33:01;19.10;99.90
31979;DHT22;18502;43.574;1.276;2022-07-23T04:35:26;19.10;99.90
31979;DHT22;18502;43.574;1.276;2022-07-23T04:37:52;19.10;99.90
31979;DHT22;18502;43.574;1.276;2022-07-23T04:40:18;19.00;99.90
31979;DHT22;18502;43.574;1.276;2022-07-23T04:42:43;19.10;99.90
31979;DHT22;18502;43.574;1.276;2022-07-23T04:45:09;19.10;99.90
31979;DHT22;18502;43.574;1.276;2022-07-23T04:47:35;19.10;99.90
31979;DHT22;18502;43.574;1.276;2022-07-23T04:50:01;19.10;99.90
31979;DHT22;18502;43.574;1.276;2022-07-23T04:52:26;19.20;99.90
31979;DHT22;18502;43.574;1.276;2022-07-23T04:54:52;19.30;99.90
31979;DHT22;18502;43.574;1.276;2022-07-23T04:57:18;19.30;99.90
31979;DHT22;18502;43.574;1.276;2022-07-23T04:59:44;19.30;99.90
31979;DHT22;18502;43.574;1.276;2022-07-23T05:02:09;19.30;99.90
31979;DHT22;18502;43.574;1.276;2022-07-23T05:04:35;19.30;99.90
31979;DHT22;18502;43.574;1.276;2022-07-23T05:07:01;19.30;99.90
31979;DHT22;18502;43.574;1.276;2022-07-23T05:09:26;19.40;99.90
31979;DHT22;18502;43.574;1.276;2022-07-23T05:11:52;19.40;99.90
31979;DHT22;18502;43.574;1.276;2022-07-23T05:14:18;19.40;99.90
31979;DHT22;18502;43.574;1.276;2022-07-23T05:16:43;19.40;99.90
31979;DHT22;18502;43.574;1.276;2022-07-23T05:19:09;19.40;99.90
31979;DHT22;18502;43.574;1.276;2022-07-23T05:21:35;19.50;99.90
31979;DHT22;18502;43.574;1.276;2022-07-23T05:24:00;19.50;99.90
31979;DHT22;18502;43.574;1.276;2022-07-23T05:26:26;19.50;99.90
31979;DHT22;18502;43.574;1.276;2022-07-23T05:28:52;19.50;99.90
31979;DHT22;18502;43.574;1.276;2022-07-23T05:31:18;19.60;99.90
31979;DHT22;18502;43.574;1.276;2022-07-23T05:33:44;19.60;99.90
31979;DHT22;18502;43.574;1.276;2022-07-23T05:36:10;19.50;99.90
31979;DHT22;18502;43.574;1.276;2022-07-23T05:38:35;19.40;99.90
31979;DHT22;18502;43.574;1.276;2022-07-23T05:41:02;19.60;99.90
31979;DHT22;18502;43.574;1.276;2022-07-23T05:43:28;19.80;99.90
31979;DHT22;18502;43.574;1.276;2022-07-23T05:45:53;19.80;99.90
31979;DHT22;18502;43.574;1.276;2022-07-23T05:48:20;19.90;99.90
31979;DHT22;18502;43.574;1.276;2022-07-23T05:50:46;20.00;99.90
31979;DHT22;18502;43.574;1.276;2022-07-23T05:53:12;20.00;99.90
31979;DHT22;18502;43.574;1.276;2022-07-23T05:55:38;20.10;99.90
31979;DHT22;18502;43.574;1.276;2022-07-23T05:58:04;20.20;99.90
31979;DHT22;18502;43.574;1.276;2022-07-23T06:00:31;20.30;99.90
31979;DHT22;18502;43.574;1.276;2022-07-23T06:02:57;20.40;99.90
31979;DHT22;18502;43.574;1.276;2022-07-23T06:05:23;20.40;99.90
31979;DHT22;18502;43.574;1.276;2022-07-23T06:07:49;20.30;99.90
31979;DHT22;18502;43.574;1.276;2022-07-23T06:10:16;20.30;99.90
31979;DHT22;18502;43.574;1.276;2022-07-23T06:12:41;20.20;99.90
31979;DHT22;18502;43.574;1.276;2022-07-23T06:15:08;20.10;99.90
31979;DHT22;18502;43.574;1.276;2022-07-23T06:17:34;20.20;99.90
31979;DHT22;18502;43.574;1.276;2022-07-23T06:19:59;20.30;99.90
31979;DHT22;18502;43.574;1.276;2022-07-23T06:22:25;20.10;99.90
31979;DHT22;18502;43.574;1.276;2022-07-23T06:24:51;20.20;99.90
31979;DHT22;18502;43.574;1.276;2022-07-23T06:27:17;20.30;99.90
31979;DHT22;18502;43.574;1.276;2022-07-23T06:29:43;20.40;99.90
31979;DHT22;18502;43.574;1.276;2022-07-23T06:32:09;20.60;99.90
31979;DHT22;18502;43.574;1.276;2022-07-23T06:34:35;20.70;99.90
31979;DHT22;18502;43.574;1.276;2022-07-23T06:37:00;20.90;99.90
31979;DHT22;18502;43.574;1.276;2022-07-23T06:39:26;21.00;99.90
31979;DHT22;18502;43.574;1.276;2022-07-23T06:41:52;21.20;99.90
31979;DHT22;18502;43.574;1.276;2022-07-23T06:44:18;21.30;99.90
31979;DHT22;18502;43.574;1.276;2022-07-23T06:46:44;21.50;99.90
31979;DHT22;18502;43.574;1.276;2022-07-23T06:49:10;21.40;99.90
31979;DHT22;18502;43.574;1.276;2022-07-23T06:51:36;21.40;99.90
31979;DHT22;18502;43.574;1.276;2022-07-23T06:54:02;21.60;99.90
31979;DHT22;18502;43.574;1.276;2022-07-23T06:56:28;21.30;99.90
31979;DHT22;18502;43.574;1.276;2022-07-23T06:58:53;21.30;99.90
31979;DHT22;18502;43.574;1.276;2022-07-23T07:01:19;21.40;99.90
31979;DHT22;18502;43.574;1.276;2022-07-23T07:03:45;21.60;99.90
31979;DHT22;18502;43.574;1.276;2022-07-23T07:06:10;21.80;99.90
31979;DHT22;18502;43.574;1.276;2022-07-23T07:08:36;22.10;99.90
31979;DHT22;18502;43.574;1.276;2022-07-23T07:11:02;22.30;99.90
31979;DHT22;18502;43.574;1.276;2022-07-23T07:13:28;22.00;99.90
31979;DHT22;18502;43.574;1.276;2022-07-23T07:15:55;22.00;99.90
31979;DHT22;18502;43.574;1.276;2022-07-23T07:18:21;21.90;99.90
31979;DHT22;18502;43.574;1.276;2022-07-23T07:20:46;21.80;99.90
31979;DHT22;18502;43.574;1.276;2022-07-23T07:23:12;21.90;99.90
31979;DHT22;18502;43.574;1.276;2022-07-23T07:25:38;22.20;99.90
31979;DHT22;18502;43.574;1.276;2022-07-23T07:28:04;22.60;99.90
31979;DHT22;18502;43.574;1.276;2022-07-23T07:30:30;22.80;99.90
31979;DHT22;18502;43.574;1.276;2022-07-23T07:32:56;23.00;99.90
31979;DHT22;18502;43.574;1.276;2022-07-23T07:35:21;23.00;99.90
31979;DHT22;18502;43.574;1.276;2022-07-23T07:37:47;23.20;99.90
31979;DHT22;18502;43.574;1.276;2022-07-23T07:40:12;23.30;99.90
31979;DHT22;18502;43.574;1.276;2022-07-23T07:42:49;23.30;99.90
31979;DHT22;18502;43.574;1.276;2022-07-23T07:45:15;23.40;99.90
31979;DHT22;18502;43.574;1.276;2022-07-23T07:47:41;23.60;99.90
31979;DHT22;18502;43.574;1.276;2022-07-23T07:50:07;23.60;99.90
31979;DHT22;18502;43.574;1.276;2022-07-23T07:52:34;23.30;99.90
31979;DHT22;18502;43.574;1.276;2022-07-23T07:55:02;23.60;99.90
31979;DHT22;18502;43.574;1.276;2022-07-23T07:57:28;23.80;99.90
31979;DHT22;18502;43.574;1.276;2022-07-23T07:59:54;23.90;99.90
31979;DHT22;18502;43.574;1.276;2022-07-23T08:02:20;24.10;99.90
31979;DHT22;18502;43.574;1.276;2022-07-23T08:04:45;24.10;99.90
31979;DHT22;18502;43.574;1.276;2022-07-23T08:07:11;24.10;99.90
31979;DHT22;18502;43.574;1.276;2022-07-23T08:09:37;23.90;99.90
31979;DHT22;18502;43.574;1.276;2022-07-23T08:12:02;24.00;99.90
31979;DHT22;18502;43.574;1.276;2022-07-23T08:14:28;23.90;99.90
31979;DHT22;18502;43.574;1.276;2022-07-23T08:16:54;23.70;99.90
31979;DHT22;18502;43.574;1.276;2022-07-23T08:19:19;24.30;99.90
31979;DHT22;18502;43.574;1.276;2022-07-23T08:21:45;24.40;99.90
31979;DHT22;18502;43.574;1.276;2022-07-23T08:24:11;24.00;99.90
31979;DHT22;18502;43.574;1.276;2022-07-23T08:26:36;24.30;99.90
31979;DHT22;18502;43.574;1.276;2022-07-23T08:29:02;24.60;99.90
31979;DHT22;18502;43.574;1.276;2022-07-23T08:31:28;25.10;99.90
31979;DHT22;18502;43.574;1.276;2022-07-23T08:33:53;25.30;99.90
31979;DHT22;18502;43.574;1.276;2022-07-23T08:36:20;25.10;99.90
31979;DHT22;18502;43.574;1.276;2022-07-23T08:38:46;24.60;99.90
31979;DHT22;18502;43.574;1.276;2022-07-23T08:41:12;24.40;99.90
31979;DHT22;18502;43.574;1.276;2022-07-23T08:43:38;24.90;99.90
31979;DHT22;18502;43.574;1.276;2022-07-23T08:46:04;24.60;99.90
31979;DHT22;18502;43.574;1.276;2022-07-23T08:48:34;24.90;99.90
31979;DHT22;18502;43.574;1.276;2022-07-23T08:51:03;25.50;99.90
31979;DHT22;18502;43.574;1.276;2022-07-23T08:53:30;25.90;99.90
31979;DHT22;18502;43.574;1.276;2022-07-23T08:56:01;26.30;99.90
31979;DHT22;18502;43.574;1.276;2022-07-23T08:58:30;25.70;99.90
31979;DHT22;18502;43.574;1.276;2022-07-23T09:00:57;25.70;99.90
31979;DHT22;18502;43.574;1.276;2022-07-23T09:03:35;25.80;99.90
31979;DHT22;18502;43.574;1.276;2022-07-23T09:06:02;26.20;99.90
31979;DHT22;18502;43.574;1.276;2022-07-23T09:08:39;26.70;99.90
31979;DHT22;18502;43.574;1.276;2022-07-23T09:11:07;26.90;99.90
31979;DHT22;18502;43.574;1.276;2022-07-23T09:13:42;26.90;99.90
31979;DHT22;18502;43.574;1.276;2022-07-23T09:16:12;27.20;99.90
31979;DHT22;18502;43.574;1.276;2022-07-23T09:18:54;27.50;99.90
31979;DHT22;18502;43.574;1.276;2022-07-23T09:21:29;26.40;99.90
31979;DHT22;18502;43.574;1.276;2022-07-23T09:23:59;25.60;99.90
31979;DHT22;18502;43.574;1.276;2022-07-23T09:31:50;25.60;99.90
31979;DHT22;18502;43.574;1.276;2022-07-23T09:34:27;26.80;99.90
31979;DHT22;18502;43.574;1.276;2022-07-23T09:36:55;26.80;99.90
31979;DHT22;18502;43.574;1.276;2022-07-23T09:39:30;27.30;99.90
31979;DHT22;18502;43.574;1.276;2022-07-23T09:41:56;27.40;99.90
31979;DHT22;18502;43.574;1.276;2022-07-23T09:44:22;27.00;99.90
31979;DHT22;18502;43.574;1.276;2022-07-23T09:46:49;27.90;99.90
31979;DHT22;18502;43.574;1.276;2022-07-23T09:49:18;26.00;99.90
31979;DHT22;18502;43.574;1.276;2022-07-23T09:54:41;27.50;99.90
31979;DHT22;18502;43.574;1.276;2022-07-23T09:57:09;27.90;99.90
31979;DHT22;18502;43.574;1.276;2022-07-23T09:59:39;28.50;99.90
31979;DHT22;18502;43.574;1.276;2022-07-23T10:02:07;28.90;99.90
31979;DHT22;18502;43.574;1.276;2022-07-23T10:04:34;27.70;99.90
31979;DHT22;18502;43.574;1.276;2022-07-23T10:07:04;26.80;99.90
31979;DHT22;18502;43.574;1.276;2022-07-23T10:09:32;27.20;99.90
31979;DHT22;18502;43.574;1.276;2022-07-23T10:12:00;26.40;99.90
31979;DHT22;18502;43.574;1.276;2022-07-23T10:14:50;25.80;99.90
31979;DHT22;18502;43.574;1.276;2022-07-23T10:17:17;25.60;99.90
31979;DHT22;18502;43.574;1.276;2022-07-23T10:19:43;26.10;99.90
31979;DHT22;18502;43.574;1.276;2022-07-23T10:22:12;26.40;99.90
31979;DHT22;18502;43.574;1.276;2022-07-23T10:24:50;25.60;99.90
31979;DHT22;18502;43.574;1.276;2022-07-23T10:35:28;29.00;99.90
31979;DHT22;18502;43.574;1.276;2022-07-23T10:41:00;28.30;99.90
31979;DHT22;18502;43.574;1.276;2022-07-23T10:43:27;29.10;99.90
31979;DHT22;18502;43.574;1.276;2022-07-23T10:45:53;28.30;99.90
31979;DHT22;18502;43.574;1.276;2022-07-23T10:48:20;28.50;99.90
31979;DHT22;18502;43.574;1.276;2022-07-23T10:56:15;28.30;99.90
31979;DHT22;18502;43.574;1.276;2022-07-23T10:58:49;28.70;99.90
31979;DHT22;18502;43.574;1.276;2022-07-23T11:03:59;29.80;99.90
31979;DHT22;18502;43.574;1.276;2022-07-23T11:09:41;28.00;99.90
31979;DHT22;18502;43.574;1.276;2022-07-23T11:15:11;27.90;99.90
31979;DHT22;18502;43.574;1.276;2022-07-23T11:25:28;29.00;99.90
31979;DHT22;18502;43.574;1.276;2022-07-23T11:27:54;30.50;99.90
31979;DHT22;18502;43.574;1.276;2022-07-23T11:32:52;30.70;99.90
31979;DHT22;18502;43.574;1.276;2022-07-23T11:35:24;28.70;99.90
31979;DHT22;18502;43.574;1.276;2022-07-23T11:37:52;27.60;99.90
31979;DHT22;18502;43.574;1.276;2022-07-23T11:40:20;27.40;99.90
31979;DHT22;18502;43.574;1.276;2022-07-23T11:43:03;27.90;99.90
31979;DHT22;18502;43.574;1.276;2022-07-23T11:45:41;29.60;99.90
31979;DHT22;18502;43.574;1.276;2022-07-23T11:50:44;33.40;99.90
31979;DHT22;18502;43.574;1.276;2022-07-23T11:53:10;31.90;98.60
31979;DHT22;18502;43.574;1.276;2022-07-23T11:55:35;33.70;99.60
31979;DHT22;18502;43.574;1.276;2022-07-23T11:58:01;39.00;93.60
31979;DHT22;18502;43.574;1.276;2022-07-23T12:00:30;36.20;87.70
31979;DHT22;18502;43.574;1.276;2022-07-23T12:03:00;33.00;90.70
31979;DHT22;18502;43.574;1.276;2022-07-23T12:05:37;32.00;92.40
31979;DHT22;18502;43.574;1.276;2022-07-23T12:08:05;34.10;91.20
31979;DHT22;18502;43.574;1.276;2022-07-23T12:13:11;34.40;84.40
31979;DHT22;18502;43.574;1.276;2022-07-23T12:15:41;34.10;85.70
31979;DHT22;18502;43.574;1.276;2022-07-23T12:18:08;34.90;82.10
31979;DHT22;18502;43.574;1.276;2022-07-23T12:20:40;37.20;81.60
31979;DHT22;18502;43.574;1.276;2022-07-23T12:23:08;40.50;76.50
31979;DHT22;18502;43.574;1.276;2022-07-23T12:25:37;41.40;67.10
31979;DHT22;18502;43.574;1.276;2022-07-23T12:28:16;42.70;64.20
31979;DHT22;18502;43.574;1.276;2022-07-23T12:30:53;43.40;56.60
31979;DHT22;18502;43.574;1.276;2022-07-23T12:33:39;44.70;54.10
31979;DHT22;18502;43.574;1.276;2022-07-23T12:36:07;41.60;52.40
31979;DHT22;18502;43.574;1.276;2022-07-23T12:38:40;42.30;52.50
31979;DHT22;18502;43.574;1.276;2022-07-23T12:41:05;44.30;50.10
31979;DHT22;18502;43.574;1.276;2022-07-23T12:43:45;44.60;46.00
31979;DHT22;18502;43.574;1.276;2022-07-23T12:46:16;44.30;46.50
31979;DHT22;18502;43.574;1.276;2022-07-23T12:51:22;41.20;42.70
31979;DHT22;18502;43.574;1.276;2022-07-23T12:53:53;41.30;46.90
31979;DHT22;18502;43.574;1.276;2022-07-23T12:56:30;42.70;45.80
31979;DHT22;18502;43.574;1.276;2022-07-23T12:59:05;39.50;45.50
31979;DHT22;18502;43.574;1.276;2022-07-23T13:01:37;40.60;43.50
31979;DHT22;18502;43.574;1.276;2022-07-23T13:09:05;45.70;41.20
31979;DHT22;18502;43.574;1.276;2022-07-23T13:11:32;44.60;39.10
31979;DHT22;18502;43.574;1.276;2022-07-23T13:13:57;45.90;40.20
31979;DHT22;18502;43.574;1.276;2022-07-23T13:16:26;46.00;36.40
31979;DHT22;18502;43.574;1.276;2022-07-23T13:18:52;44.10;36.40
31979;DHT22;18502;43.574;1.276;2022-07-23T13:21:17;43.30;38.30
31979;DHT22;18502;43.574;1.276;2022-07-23T13:23:43;42.60;40.00
31979;DHT22;18502;43.574;1.276;2022-07-23T13:26:09;43.20;38.20
31979;DHT22;18502;43.574;1.276;2022-07-23T13:28:35;39.70;42.20
31979;DHT22;18502;43.574;1.276;2022-07-23T13:31:00;43.10;39.20
31979;DHT22;18502;43.574;1.276;2022-07-23T13:33:26;44.10;39.10
31979;DHT22;18502;43.574;1.276;2022-07-23T13:35:53;46.30;37.40
31979;DHT22;18502;43.574;1.276;2022-07-23T13:38:19;48.00;35.90
31979;DHT22;18502;43.574;1.276;2022-07-23T13:40:47;42.50;35.60
31979;DHT22;18502;43.574;1.276;2022-07-23T13:43:16;43.90;34.60
31979;DHT22;18502;43.574;1.276;2022-07-23T13:45:42;45.70;35.20
31979;DHT22;18502;43.574;1.276;2022-07-23T13:48:10;41.70;36.50
31979;DHT22;18502;43.574;1.276;2022-07-23T13:50:37;42.90;37.10
31979;DHT22;18502;43.574;1.276;2022-07-23T13:53:04;46.60;35.60
31979;DHT22;18502;43.574;1.276;2022-07-23T13:55:31;46.70;32.90
31979;DHT22;18502;43.574;1.276;2022-07-23T13:57:57;47.30;33.30
31979;DHT22;18502;43.574;1.276;2022-07-23T14:00:24;46.40;31.80
31979;DHT22;18502;43.574;1.276;2022-07-23T14:02:49;45.10;32.20
31979;DHT22;18502;43.574;1.276;2022-07-23T14:05:15;46.70;31.80
31979;DHT22;18502;43.574;1.276;2022-07-23T14:07:41;48.10;30.70
31979;DHT22;18502;43.574;1.276;2022-07-23T14:10:10;49.10;29.40
31979;DHT22;18502;43.574;1.276;2022-07-23T14:12:36;49.70;28.70
31979;DHT22;18502;43.574;1.276;2022-07-23T14:15:04;49.40;27.30
31979;DHT22;18502;43.574;1.276;2022-07-23T14:17:30;49.10;27.10
31979;DHT22;18502;43.574;1.276;2022-07-23T14:19:57;49.40;27.00
31979;DHT22;18502;43.574;1.276;2022-07-23T14:22:23;48.10;27.80
31979;DHT22;18502;43.574;1.276;2022-07-23T14:24:49;48.30;27.20
31979;DHT22;18502;43.574;1.276;2022-07-23T14:27:15;49.40;27.00
31979;DHT22;18502;43.574;1.276;2022-07-23T14:29:41;49.40;26.40
31979;DHT22;18502;43.574;1.276;2022-07-23T14:32:06;48.90;25.90
31979;DHT22;18502;43.574;1.276;2022-07-23T14:34:32;48.10;26.10
31979;DHT22;18502;43.574;1.276;2022-07-23T14:36:58;48.20;26.20
31979;DHT22;18502;43.574;1.276;2022-07-23T14:39:25;47.80;25.30
31979;DHT22;18502;43.574;1.276;2022-07-23T14:41:51;46.40;25.70
31979;DHT22;18502;43.574;1.276;2022-07-23T14:44:17;44.80;27.80
31979;DHT22;18502;43.574;1.276;2022-07-23T14:46:43;46.40;26.70
31979;DHT22;18502;43.574;1.276;2022-07-23T14:49:09;48.00;25.60
31979;DHT22;18502;43.574;1.276;2022-07-23T14:51:35;49.20;25.20
31979;DHT22;18502;43.574;1.276;2022-07-23T14:54:02;49.60;24.60
31979;DHT22;18502;43.574;1.276;2022-07-23T14:56:28;49.60;24.50
31979;DHT22;18502;43.574;1.276;2022-07-23T14:58:54;49.70;23.50
31979;DHT22;18502;43.574;1.276;2022-07-23T15:01:22;49.50;24.20
31979;DHT22;18502;43.574;1.276;2022-07-23T15:03:48;49.10;23.70
31979;DHT22;18502;43.574;1.276;2022-07-23T15:06:15;49.50;23.80
31979;DHT22;18502;43.574;1.276;2022-07-23T15:08:40;48.00;23.30
31979;DHT22;18502;43.574;1.276;2022-07-23T15:11:06;48.90;23.90
31979;DHT22;18502;43.574;1.276;2022-07-23T15:13:35;49.00;23.20
31979;DHT22;18502;43.574;1.276;2022-07-23T15:16:00;49.00;23.40
31979;DHT22;18502;43.574;1.276;2022-07-23T15:18:26;47.40;23.60
31979;DHT22;18502;43.574;1.276;2022-07-23T15:20:52;48.40;23.90
31979;DHT22;18502;43.574;1.276;2022-07-23T15:23:18;48.00;24.00
31979;DHT22;18502;43.574;1.276;2022-07-23T15:25:43;49.20;23.80
31979;DHT22;18502;43.574;1.276;2022-07-23T15:28:09;48.80;22.70
31979;DHT22;18502;43.574;1.276;2022-07-23T15:30:35;48.90;23.60
31979;DHT22;18502;43.574;1.276;2022-07-23T15:33:00;48.40;23.60
31979;DHT22;18502;43.574;1.276;2022-07-23T15:35:26;46.10;24.10
31979;DHT22;18502;43.574;1.276;2022-07-23T15:37:52;45.00;25.10
31979;DHT22;18502;43.574;1.276;2022-07-23T15:40:18;44.90;24.90
31979;DHT22;18502;43.574;1.276;2022-07-23T15:42:43;45.70;24.80
31979;DHT22;18502;43.574;1.276;2022-07-23T15:45:09;44.00;25.20
31979;DHT22;18502;43.574;1.276;2022-07-23T15:47:35;42.60;25.50
31979;DHT22;18502;43.574;1.276;2022-07-23T15:50:01;42.00;27.10
31979;DHT22;18502;43.574;1.276;2022-07-23T15:52:26;45.30;25.60
31979;DHT22;18502;43.574;1.276;2022-07-23T15:54:52;47.00;23.90
31979;DHT22;18502;43.574;1.276;2022-07-23T15:57:18;47.70;23.50
31979;DHT22;18502;43.574;1.276;2022-07-23T15:59:44;47.70;23.10
31979;DHT22;18502;43.574;1.276;2022-07-23T16:02:09;48.30;23.20
31979;DHT22;18502;43.574;1.276;2022-07-23T16:04:35;47.30;23.10
31979;DHT22;18502;43.574;1.276;2022-07-23T16:07:01;47.80;22.90
31979;DHT22;18502;43.574;1.276;2022-07-23T16:09:27;48.50;23.00
31979;DHT22;18502;43.574;1.276;2022-07-23T16:11:52;48.10;22.60
31979;DHT22;18502;43.574;1.276;2022-07-23T16:14:21;48.00;22.80
31979;DHT22;18502;43.574;1.276;2022-07-23T16:16:47;47.50;22.80
31979;DHT22;18502;43.574;1.276;2022-07-23T16:19:12;47.50;22.70
31979;DHT22;18502;43.574;1.276;2022-07-23T16:21:38;46.90;23.20
31979;DHT22;18502;43.574;1.276;2022-07-23T16:24:04;46.90;22.90
31979;DHT22;18502;43.574;1.276;2022-07-23T16:26:30;47.00;22.90